Portada
METAR-TAF:

METAR-TAF

Aeroports :

Lilla, França

latitud: 50-34N, longitud: 003-06E, altitud: 48 m

Observació

L'informe es va fer fa 30 minuts, a les 01:30 UTC
Vent 3 kt amb direcció variable
Temperatura 15°C
Humitat 72%
Pressió 1020 hPa
Visibilitat 10 km o més
Cel cobert a una alçada de 2600 ft

METAR: LFQQ 160130Z AUTO VRB03KT 9999 OVC026 15/10 Q1020 NOSIG

Hora: 04:00 (02:00 UTC)

Pronòstic

L'informe es va fer fa 3 hores i 0 minuts, a les 23:00 UTC
Pronòstic vàlid del 16 a les 00 UTC al 17 a les 06 UTC
Vent 8 kt del Nord
Visibilitat 10 km o més
Cel ennuvolat a una alçada de 2500 ft

TAF: LFQQ 152300Z 1600/1706 36008KT 9999 BKN025

Observacions i pronòstics meteorològics de més de 4000 aeroports (METAR i TAF).

Les estacions disponibles són els punts grocs i vermells al mapa.

Posi el ratolí al punt desitjat per veure el nom de l'estació.

Feu clic per veure les observacions i els pronòstics meteorològics.

Per canviar el mapa: feu clic els botons verds amb una creu de color negre per apropar; al botó verd amb un guió per allunyar la imatge; o en les fletxes verdes per a mapes adjacents.


METAR-TAF: